sensor_id;sensor_type;location;lat;lon;timestamp;P1;durP1;ratioP1;P2;durP2;ratioP2
68315;SDS011;55508;54.368;18.406;2023-06-01T00:02:24;8.77;;;3.88;;
68315;SDS011;55508;54.368;18.406;2023-06-01T00:04:53;11.32;;;4.03;;
68315;SDS011;55508;54.368;18.406;2023-06-01T00:07:20;6.88;;;3.50;;
68315;SDS011;55508;54.368;18.406;2023-06-01T00:09:47;9.45;;;4.00;;
68315;SDS011;55508;54.368;18.406;2023-06-01T00:12:14;7.25;;;3.97;;
68315;SDS011;55508;54.368;18.406;2023-06-01T00:14:41;7.75;;;3.72;;
68315;SDS011;55508;54.368;18.406;2023-06-01T00:17:08;8.68;;;4.03;;
68315;SDS011;55508;54.368;18.406;2023-06-01T00:19:36;10.88;;;4.60;;
68315;SDS011;55508;54.368;18.406;2023-06-01T00:22:05;9.02;;;3.60;;
68315;SDS011;55508;54.368;18.406;2023-06-01T00:24:34;10.30;;;4.07;;
68315;SDS011;55508;54.368;18.406;2023-06-01T00:27:01;10.93;;;4.30;;
68315;SDS011;55508;54.368;18.406;2023-06-01T00:29:28;7.95;;;3.58;;
68315;SDS011;55508;54.368;18.406;2023-06-01T00:31:56;10.40;;;3.97;;
68315;SDS011;55508;54.368;18.406;2023-06-01T00:34:23;10.50;;;4.13;;
68315;SDS011;55508;54.368;18.406;2023-06-01T00:36:51;11.48;;;4.05;;
68315;SDS011;55508;54.368;18.406;2023-06-01T00:39:18;14.60;;;4.72;;
68315;SDS011;55508;54.368;18.406;2023-06-01T00:41:45;7.63;;;4.10;;
68315;SDS011;55508;54.368;18.406;2023-06-01T00:44:12;10.23;;;4.15;;
68315;SDS011;55508;54.368;18.406;2023-06-01T00:46:39;8.80;;;4.15;;
68315;SDS011;55508;54.368;18.406;2023-06-01T00:49:06;6.82;;;4.10;;
68315;SDS011;55508;54.368;18.406;2023-06-01T00:51:34;13.23;;;4.50;;
68315;SDS011;55508;54.368;18.406;2023-06-01T00:54:02;5.68;;;3.90;;
68315;SDS011;55508;54.368;18.406;2023-06-01T00:56:29;8.60;;;4.40;;
68315;SDS011;55508;54.368;18.406;2023-06-01T00:58:58;13.45;;;4.72;;
68315;SDS011;55508;54.368;18.406;2023-06-01T01:01:26;11.95;;;4.75;;
68315;SDS011;55508;54.368;18.406;2023-06-01T01:03:53;11.85;;;4.72;;
68315;SDS011;55508;54.368;18.406;2023-06-01T01:06:31;12.98;;;4.50;;
68315;SDS011;55508;54.368;18.406;2023-06-01T01:09:22;8.40;;;3.78;;
68315;SDS011;55508;54.368;18.406;2023-06-01T01:12:14;8.50;;;4.65;;
68315;SDS011;55508;54.368;18.406;2023-06-01T01:14:53;5.40;;;4.70;;
68315;SDS011;55508;54.368;18.406;2023-06-01T01:17:30;8.40;;;4.25;;
68315;SDS011;55508;54.368;18.406;2023-06-01T01:20:06;8.82;;;5.18;;
68315;SDS011;55508;54.368;18.406;2023-06-01T01:28:47;10.50;;;4.80;;
68315;SDS011;55508;54.368;18.406;2023-06-01T01:31:18;6.35;;;4.50;;
68315;SDS011;55508;54.368;18.406;2023-06-01T01:33:55;12.55;;;4.25;;
68315;SDS011;55508;54.368;18.406;2023-06-01T01:36:23;10.80;;;4.72;;
68315;SDS011;55508;54.368;18.406;2023-06-01T01:38:51;8.75;;;5.20;;
68315;SDS011;55508;54.368;18.406;2023-06-01T01:41:18;8.68;;;4.72;;
68315;SDS011;55508;54.368;18.406;2023-06-01T01:43:45;11.18;;;4.38;;
68315;SDS011;55508;54.368;18.406;2023-06-01T01:46:19;8.98;;;4.97;;
68315;SDS011;55508;54.368;18.406;2023-06-01T01:52:03;10.80;;;4.70;;
68315;SDS011;55508;54.368;18.406;2023-06-01T01:54:34;9.18;;;4.85;;
68315;SDS011;55508;54.368;18.406;2023-06-01T01:57:04;9.80;;;5.07;;
68315;SDS011;55508;54.368;18.406;2023-06-01T01:59:32;9.35;;;4.85;;
68315;SDS011;55508;54.368;18.406;2023-06-01T02:01:59;13.40;;;5.85;;
68315;SDS011;55508;54.368;18.406;2023-06-01T02:04:28;13.32;;;5.03;;
68315;SDS011;55508;54.368;18.406;2023-06-01T02:06:57;10.40;;;4.85;;
68315;SDS011;55508;54.368;18.406;2023-06-01T02:09:28;11.82;;;6.55;;
68315;SDS011;55508;54.368;18.406;2023-06-01T02:11:56;9.80;;;5.22;;
68315;SDS011;55508;54.368;18.406;2023-06-01T02:14:23;12.15;;;4.90;;
68315;SDS011;55508;54.368;18.406;2023-06-01T02:16:50;11.93;;;5.25;;
68315;SDS011;55508;54.368;18.406;2023-06-01T02:19:17;9.02;;;5.00;;
68315;SDS011;55508;54.368;18.406;2023-06-01T02:21:44;9.13;;;5.97;;
68315;SDS011;55508;54.368;18.406;2023-06-01T02:24:12;11.75;;;5.40;;
68315;SDS011;55508;54.368;18.406;2023-06-01T02:26:39;9.57;;;5.47;;
68315;SDS011;55508;54.368;18.406;2023-06-01T02:29:07;13.27;;;5.93;;
68315;SDS011;55508;54.368;18.406;2023-06-01T02:31:34;10.07;;;5.35;;
68315;SDS011;55508;54.368;18.406;2023-06-01T02:34:02;12.50;;;5.50;;
68315;SDS011;55508;54.368;18.406;2023-06-01T02:36:29;15.27;;;5.38;;
68315;SDS011;55508;54.368;18.406;2023-06-01T02:38:59;8.95;;;5.38;;
68315;SDS011;55508;54.368;18.406;2023-06-01T02:41:26;12.57;;;5.93;;
68315;SDS011;55508;54.368;18.406;2023-06-01T02:43:53;13.32;;;6.15;;
68315;SDS011;55508;54.368;18.406;2023-06-01T02:46:20;9.45;;;5.40;;
68315;SDS011;55508;54.368;18.406;2023-06-01T02:48:48;13.05;;;6.25;;
68315;SDS011;55508;54.368;18.406;2023-06-01T02:51:16;9.82;;;5.40;;
68315;SDS011;55508;54.368;18.406;2023-06-01T02:53:46;10.52;;;6.00;;
68315;SDS011;55508;54.368;18.406;2023-06-01T02:56:13;8.75;;;4.90;;
68315;SDS011;55508;54.368;18.406;2023-06-01T02:58:59;10.48;;;5.72;;
68315;SDS011;55508;54.368;18.406;2023-06-01T03:04:04;9.50;;;4.53;;
68315;SDS011;55508;54.368;18.406;2023-06-01T03:06:32;8.02;;;5.05;;
68315;SDS011;55508;54.368;18.406;2023-06-01T03:09:22;9.80;;;4.80;;
68315;SDS011;55508;54.368;18.406;2023-06-01T03:11:59;11.85;;;4.47;;
68315;SDS011;55508;54.368;18.406;2023-06-01T03:14:29;7.07;;;4.13;;
68315;SDS011;55508;54.368;18.406;2023-06-01T03:16:56;11.60;;;4.50;;
68315;SDS011;55508;54.368;18.406;2023-06-01T03:19:24;8.05;;;4.18;;
68315;SDS011;55508;54.368;18.406;2023-06-01T03:21:56;8.25;;;4.00;;
68315;SDS011;55508;54.368;18.406;2023-06-01T03:24:23;11.52;;;4.60;;
68315;SDS011;55508;54.368;18.406;2023-06-01T03:26:58;9.20;;;4.05;;
68315;SDS011;55508;54.368;18.406;2023-06-01T03:29:28;7.78;;;3.95;;
68315;SDS011;55508;54.368;18.406;2023-06-01T03:31:55;8.75;;;4.15;;
68315;SDS011;55508;54.368;18.406;2023-06-01T03:34:23;9.38;;;4.50;;
68315;SDS011;55508;54.368;18.406;2023-06-01T03:36:50;13.77;;;4.57;;
68315;SDS011;55508;54.368;18.406;2023-06-01T03:39:19;7.63;;;4.13;;
68315;SDS011;55508;54.368;18.406;2023-06-01T03:41:46;7.97;;;4.20;;
68315;SDS011;55508;54.368;18.406;2023-06-01T03:44:14;8.07;;;3.50;;
68315;SDS011;55508;54.368;18.406;2023-06-01T03:46:43;9.80;;;4.22;;
68315;SDS011;55508;54.368;18.406;2023-06-01T03:49:11;9.07;;;4.03;;
68315;SDS011;55508;54.368;18.406;2023-06-01T03:51:38;5.97;;;3.90;;
68315;SDS011;55508;54.368;18.406;2023-06-01T03:54:05;10.20;;;4.15;;
68315;SDS011;55508;54.368;18.406;2023-06-01T03:56:33;10.82;;;4.60;;
68315;SDS011;55508;54.368;18.406;2023-06-01T03:59:01;10.18;;;4.55;;
68315;SDS011;55508;54.368;18.406;2023-06-01T04:01:28;8.13;;;3.95;;
68315;SDS011;55508;54.368;18.406;2023-06-01T04:03:56;6.63;;;3.67;;
68315;SDS011;55508;54.368;18.406;2023-06-01T04:06:23;7.40;;;3.90;;
68315;SDS011;55508;54.368;18.406;2023-06-01T04:08:51;10.32;;;4.28;;
68315;SDS011;55508;54.368;18.406;2023-06-01T04:11:22;6.22;;;3.78;;
68315;SDS011;55508;54.368;18.406;2023-06-01T04:13:50;7.32;;;3.80;;
68315;SDS011;55508;54.368;18.406;2023-06-01T04:16:18;9.15;;;4.30;;
68315;SDS011;55508;54.368;18.406;2023-06-01T04:18:46;12.75;;;4.05;;
68315;SDS011;55508;54.368;18.406;2023-06-01T04:21:16;7.88;;;4.07;;
68315;SDS011;55508;54.368;18.406;2023-06-01T04:23:43;7.45;;;3.80;;
68315;SDS011;55508;54.368;18.406;2023-06-01T04:26:12;10.35;;;4.20;;
68315;SDS011;55508;54.368;18.406;2023-06-01T04:28:40;6.57;;;3.80;;
68315;SDS011;55508;54.368;18.406;2023-06-01T04:31:11;6.95;;;4.00;;
68315;SDS011;55508;54.368;18.406;2023-06-01T04:33:47;10.02;;;3.88;;
68315;SDS011;55508;54.368;18.406;2023-06-01T04:36:24;10.50;;;3.97;;
68315;SDS011;55508;54.368;18.406;2023-06-01T04:38:55;8.82;;;3.78;;
68315;SDS011;55508;54.368;18.406;2023-06-01T04:41:24;14.63;;;4.68;;
68315;SDS011;55508;54.368;18.406;2023-06-01T04:43:51;9.00;;;3.75;;
68315;SDS011;55508;54.368;18.406;2023-06-01T04:46:20;11.63;;;3.90;;
68315;SDS011;55508;54.368;18.406;2023-06-01T04:48:52;8.68;;;4.15;;
68315;SDS011;55508;54.368;18.406;2023-06-01T04:51:21;9.75;;;3.45;;
68315;SDS011;55508;54.368;18.406;2023-06-01T04:53:51;9.30;;;3.88;;
68315;SDS011;55508;54.368;18.406;2023-06-01T04:56:19;8.40;;;3.08;;
68315;SDS011;55508;54.368;18.406;2023-06-01T04:58:51;8.35;;;3.72;;
68315;SDS011;55508;54.368;18.406;2023-06-01T05:01:20;8.32;;;3.72;;
68315;SDS011;55508;54.368;18.406;2023-06-01T05:03:52;10.68;;;3.58;;
68315;SDS011;55508;54.368;18.406;2023-06-01T05:06:21;9.70;;;3.97;;
68315;SDS011;55508;54.368;18.406;2023-06-01T05:08:49;9.45;;;3.60;;
68315;SDS011;55508;54.368;18.406;2023-06-01T05:11:17;8.50;;;3.38;;
68315;SDS011;55508;54.368;18.406;2023-06-01T05:13:44;9.95;;;3.70;;
68315;SDS011;55508;54.368;18.406;2023-06-01T05:16:11;13.75;;;3.65;;
68315;SDS011;55508;54.368;18.406;2023-06-01T05:18:39;7.10;;;3.67;;
68315;SDS011;55508;54.368;18.406;2023-06-01T05:21:08;9.55;;;3.95;;
68315;SDS011;55508;54.368;18.406;2023-06-01T05:23:35;9.07;;;3.60;;
68315;SDS011;55508;54.368;18.406;2023-06-01T05:26:02;11.23;;;3.97;;
68315;SDS011;55508;54.368;18.406;2023-06-01T05:28:36;11.13;;;3.63;;
68315;SDS011;55508;54.368;18.406;2023-06-01T05:31:06;8.07;;;3.60;;
68315;SDS011;55508;54.368;18.406;2023-06-01T05:33:39;9.70;;;3.97;;
68315;SDS011;55508;54.368;18.406;2023-06-01T05:36:06;9.23;;;4.22;;
68315;SDS011;55508;54.368;18.406;2023-06-01T05:38:34;11.57;;;3.83;;
68315;SDS011;55508;54.368;18.406;2023-06-01T05:41:01;10.13;;;4.25;;
68315;SDS011;55508;54.368;18.406;2023-06-01T05:43:28;10.80;;;4.63;;
68315;SDS011;55508;54.368;18.406;2023-06-01T05:45:57;10.98;;;4.03;;
68315;SDS011;55508;54.368;18.406;2023-06-01T05:48:24;10.32;;;4.30;;
68315;SDS011;55508;54.368;18.406;2023-06-01T05:50:53;9.90;;;3.90;;
68315;SDS011;55508;54.368;18.406;2023-06-01T05:53:20;7.57;;;3.35;;
68315;SDS011;55508;54.368;18.406;2023-06-01T05:55:51;5.80;;;3.63;;
68315;SDS011;55508;54.368;18.406;2023-06-01T05:58:19;10.85;;;4.07;;
68315;SDS011;55508;54.368;18.406;2023-06-01T06:00:46;8.25;;;3.85;;
68315;SDS011;55508;54.368;18.406;2023-06-01T06:03:13;11.40;;;3.65;;
68315;SDS011;55508;54.368;18.406;2023-06-01T06:05:41;10.73;;;3.63;;
68315;SDS011;55508;54.368;18.406;2023-06-01T06:08:08;12.70;;;3.97;;
68315;SDS011;55508;54.368;18.406;2023-06-01T06:10:36;8.82;;;3.40;;
68315;SDS011;55508;54.368;18.406;2023-06-01T06:13:03;9.68;;;3.42;;
68315;SDS011;55508;54.368;18.406;2023-06-01T06:15:31;6.47;;;2.63;;
68315;SDS011;55508;54.368;18.406;2023-06-01T06:17:58;11.02;;;3.65;;
68315;SDS011;55508;54.368;18.406;2023-06-01T06:20:25;5.03;;;2.50;;
68315;SDS011;55508;54.368;18.406;2023-06-01T06:22:52;10.32;;;2.88;;
68315;SDS011;55508;54.368;18.406;2023-06-01T06:25:19;7.38;;;2.63;;
68315;SDS011;55508;54.368;18.406;2023-06-01T06:27:47;8.15;;;3.30;;
68315;SDS011;55508;54.368;18.406;2023-06-01T06:30:14;8.63;;;2.58;;
68315;SDS011;55508;54.368;18.406;2023-06-01T06:32:41;7.40;;;3.00;;
68315;SDS011;55508;54.368;18.406;2023-06-01T06:35:09;5.70;;;2.80;;
68315;SDS011;55508;54.368;18.406;2023-06-01T06:37:40;5.00;;;2.60;;
68315;SDS011;55508;54.368;18.406;2023-06-01T06:40:08;6.50;;;2.97;;
68315;SDS011;55508;54.368;18.406;2023-06-01T06:42:35;7.75;;;3.17;;
68315;SDS011;55508;54.368;18.406;2023-06-01T06:45:02;7.32;;;3.22;;
68315;SDS011;55508;54.368;18.406;2023-06-01T06:47:31;7.20;;;2.83;;
68315;SDS011;55508;54.368;18.406;2023-06-01T06:49:59;8.95;;;2.85;;
68315;SDS011;55508;54.368;18.406;2023-06-01T06:52:25;6.78;;;3.03;;
68315;SDS011;55508;54.368;18.406;2023-06-01T06:54:53;6.47;;;2.67;;
68315;SDS011;55508;54.368;18.406;2023-06-01T06:57:20;7.40;;;3.10;;
68315;SDS011;55508;54.368;18.406;2023-06-01T06:59:47;7.13;;;3.38;;
68315;SDS011;55508;54.368;18.406;2023-06-01T07:02:14;12.30;;;3.05;;
68315;SDS011;55508;54.368;18.406;2023-06-01T07:04:41;10.13;;;2.75;;
68315;SDS011;55508;54.368;18.406;2023-06-01T07:07:08;9.93;;;2.97;;
68315;SDS011;55508;54.368;18.406;2023-06-01T07:09:35;5.40;;;2.38;;
68315;SDS011;55508;54.368;18.406;2023-06-01T07:12:02;9.90;;;2.70;;
68315;SDS011;55508;54.368;18.406;2023-06-01T07:14:29;10.23;;;2.40;;
68315;SDS011;55508;54.368;18.406;2023-06-01T07:16:56;5.68;;;2.55;;
68315;SDS011;55508;54.368;18.406;2023-06-01T07:19:23;6.30;;;2.40;;
68315;SDS011;55508;54.368;18.406;2023-06-01T07:21:50;8.38;;;2.38;;
68315;SDS011;55508;54.368;18.406;2023-06-01T07:24:18;3.08;;;2.20;;
68315;SDS011;55508;54.368;18.406;2023-06-01T07:26:45;12.30;;;2.65;;
68315;SDS011;55508;54.368;18.406;2023-06-01T07:29:12;8.48;;;3.00;;
68315;SDS011;55508;54.368;18.406;2023-06-01T07:31:41;7.45;;;2.72;;
68315;SDS011;55508;54.368;18.406;2023-06-01T07:34:08;6.65;;;2.67;;
68315;SDS011;55508;54.368;18.406;2023-06-01T07:36:36;9.30;;;3.05;;
68315;SDS011;55508;54.368;18.406;2023-06-01T07:39:04;6.50;;;2.85;;
68315;SDS011;55508;54.368;18.406;2023-06-01T07:41:35;7.03;;;2.75;;
68315;SDS011;55508;54.368;18.406;2023-06-01T07:44:02;6.65;;;2.25;;
68315;SDS011;55508;54.368;18.406;2023-06-01T07:46:29;6.55;;;2.83;;
68315;SDS011;55508;54.368;18.406;2023-06-01T07:48:56;11.25;;;2.60;;
68315;SDS011;55508;54.368;18.406;2023-06-01T07:51:24;8.35;;;2.80;;
68315;SDS011;55508;54.368;18.406;2023-06-01T07:53:51;7.32;;;2.35;;
68315;SDS011;55508;54.368;18.406;2023-06-01T07:56:21;7.85;;;2.15;;
68315;SDS011;55508;54.368;18.406;2023-06-01T07:58:53;8.90;;;3.08;;
68315;SDS011;55508;54.368;18.406;2023-06-01T08:01:20;8.38;;;2.70;;
68315;SDS011;55508;54.368;18.406;2023-06-01T08:03:47;10.95;;;2.90;;
68315;SDS011;55508;54.368;18.406;2023-06-01T08:06:14;9.07;;;2.90;;
68315;SDS011;55508;54.368;18.406;2023-06-01T08:08:42;5.80;;;2.30;;
68315;SDS011;55508;54.368;18.406;2023-06-01T08:11:09;5.18;;;2.65;;
68315;SDS011;55508;54.368;18.406;2023-06-01T08:13:36;12.27;;;2.75;;
68315;SDS011;55508;54.368;18.406;2023-06-01T08:16:03;4.85;;;2.47;;
68315;SDS011;55508;54.368;18.406;2023-06-01T08:18:30;6.43;;;2.17;;
68315;SDS011;55508;54.368;18.406;2023-06-01T08:20:57;8.82;;;2.88;;
68315;SDS011;55508;54.368;18.406;2023-06-01T08:23:26;9.27;;;2.40;;
68315;SDS011;55508;54.368;18.406;2023-06-01T08:25:54;5.63;;;2.35;;
68315;SDS011;55508;54.368;18.406;2023-06-01T08:28:21;5.80;;;2.88;;
68315;SDS011;55508;54.368;18.406;2023-06-01T08:30:48;5.90;;;2.60;;
68315;SDS011;55508;54.368;18.406;2023-06-01T08:33:15;4.00;;;2.17;;
68315;SDS011;55508;54.368;18.406;2023-06-01T08:35:42;7.07;;;2.33;;
68315;SDS011;55508;54.368;18.406;2023-06-01T08:38:09;6.78;;;2.33;;
68315;SDS011;55508;54.368;18.406;2023-06-01T08:40:36;15.07;;;2.80;;
68315;SDS011;55508;54.368;18.406;2023-06-01T08:45:50;8.32;;;1.90;;
68315;SDS011;55508;54.368;18.406;2023-06-01T08:48:18;5.15;;;2.13;;
68315;SDS011;55508;54.368;18.406;2023-06-01T08:50:50;4.30;;;2.55;;
68315;SDS011;55508;54.368;18.406;2023-06-01T08:53:19;6.50;;;2.20;;
68315;SDS011;55508;54.368;18.406;2023-06-01T08:55:52;6.70;;;2.22;;
68315;SDS011;55508;54.368;18.406;2023-06-01T08:58:19;5.32;;;2.42;;
68315;SDS011;55508;54.368;18.406;2023-06-01T09:00:47;5.88;;;2.13;;
68315;SDS011;55508;54.368;18.406;2023-06-01T09:03:15;6.68;;;1.98;;
68315;SDS011;55508;54.368;18.406;2023-06-01T09:05:42;7.78;;;2.30;;
68315;SDS011;55508;54.368;18.406;2023-06-01T09:08:09;7.53;;;2.28;;
68315;SDS011;55508;54.368;18.406;2023-06-01T09:10:36;8.82;;;2.30;;
68315;SDS011;55508;54.368;18.406;2023-06-01T09:13:03;3.13;;;2.13;;
68315;SDS011;55508;54.368;18.406;2023-06-01T09:15:30;5.10;;;2.17;;
68315;SDS011;55508;54.368;18.406;2023-06-01T09:18:07;8.57;;;2.50;;
68315;SDS011;55508;54.368;18.406;2023-06-01T09:20:37;3.67;;;1.85;;
68315;SDS011;55508;54.368;18.406;2023-06-01T09:23:05;8.50;;;2.20;;
68315;SDS011;55508;54.368;18.406;2023-06-01T09:25:32;5.63;;;2.10;;
68315;SDS011;55508;54.368;18.406;2023-06-01T09:28:00;4.80;;;2.20;;
68315;SDS011;55508;54.368;18.406;2023-06-01T09:30:38;5.22;;;2.35;;
68315;SDS011;55508;54.368;18.406;2023-06-01T09:33:13;4.00;;;2.00;;
68315;SDS011;55508;54.368;18.406;2023-06-01T09:35:43;5.65;;;2.15;;
68315;SDS011;55508;54.368;18.406;2023-06-01T09:38:11;6.18;;;2.17;;
68315;SDS011;55508;54.368;18.406;2023-06-01T09:40:39;5.72;;;1.92;;
68315;SDS011;55508;54.368;18.406;2023-06-01T09:46:03;9.48;;;2.65;;
68315;SDS011;55508;54.368;18.406;2023-06-01T09:48:32;4.30;;;1.92;;
68315;SDS011;55508;54.368;18.406;2023-06-01T09:50:59;5.03;;;2.15;;
68315;SDS011;55508;54.368;18.406;2023-06-01T09:53:39;7.75;;;2.20;;
68315;SDS011;55508;54.368;18.406;2023-06-01T09:56:07;3.55;;;1.55;;
68315;SDS011;55508;54.368;18.406;2023-06-01T09:58:34;5.43;;;1.85;;
68315;SDS011;55508;54.368;18.406;2023-06-01T10:01:07;6.00;;;2.17;;
68315;SDS011;55508;54.368;18.406;2023-06-01T10:03:38;9.35;;;2.15;;
68315;SDS011;55508;54.368;18.406;2023-06-01T10:06:11;5.22;;;2.00;;
68315;SDS011;55508;54.368;18.406;2023-06-01T10:08:39;5.63;;;2.17;;
68315;SDS011;55508;54.368;18.406;2023-06-01T10:11:07;4.95;;;1.95;;
68315;SDS011;55508;54.368;18.406;2023-06-01T10:13:35;4.68;;;2.30;;
68315;SDS011;55508;54.368;18.406;2023-06-01T10:16:02;5.05;;;2.28;;
68315;SDS011;55508;54.368;18.406;2023-06-01T10:18:31;6.72;;;1.92;;
68315;SDS011;55508;54.368;18.406;2023-06-01T10:20:58;7.60;;;2.20;;
68315;SDS011;55508;54.368;18.406;2023-06-01T10:23:27;8.30;;;2.30;;
68315;SDS011;55508;54.368;18.406;2023-06-01T10:25:57;5.65;;;2.05;;
68315;SDS011;55508;54.368;18.406;2023-06-01T10:28:27;7.43;;;2.38;;
68315;SDS011;55508;54.368;18.406;2023-06-01T10:34:04;4.03;;;1.95;;
68315;SDS011;55508;54.368;18.406;2023-06-01T10:39:39;6.63;;;2.35;;
68315;SDS011;55508;54.368;18.406;2023-06-01T10:45:03;3.10;;;1.98;;
68315;SDS011;55508;54.368;18.406;2023-06-01T10:47:49;7.65;;;2.05;;
68315;SDS011;55508;54.368;18.406;2023-06-01T10:50:17;11.10;;;2.55;;
68315;SDS011;55508;54.368;18.406;2023-06-01T10:52:44;7.88;;;2.38;;
68315;SDS011;55508;54.368;18.406;2023-06-01T10:55:20;10.52;;;2.30;;
68315;SDS011;55508;54.368;18.406;2023-06-01T10:58:18;6.47;;;2.60;;
68315;SDS011;55508;54.368;18.406;2023-06-01T11:00:51;8.23;;;2.40;;
68315;SDS011;55508;54.368;18.406;2023-06-01T11:03:41;12.85;;;2.63;;
68315;SDS011;55508;54.368;18.406;2023-06-01T11:06:23;4.60;;;2.47;;
68315;SDS011;55508;54.368;18.406;2023-06-01T11:08:53;5.00;;;2.88;;
68315;SDS011;55508;54.368;18.406;2023-06-01T11:14:25;7.78;;;2.85;;
68315;SDS011;55508;54.368;18.406;2023-06-01T11:17:24;5.05;;;2.53;;
68315;SDS011;55508;54.368;18.406;2023-06-01T11:19:58;6.90;;;2.88;;
68315;SDS011;55508;54.368;18.406;2023-06-01T11:22:35;9.80;;;2.10;;
68315;SDS011;55508;54.368;18.406;2023-06-01T11:25:04;5.53;;;2.45;;
68315;SDS011;55508;54.368;18.406;2023-06-01T11:27:32;7.18;;;3.00;;
68315;SDS011;55508;54.368;18.406;2023-06-01T11:30:03;6.30;;;3.05;;
68315;SDS011;55508;54.368;18.406;2023-06-01T11:32:30;6.40;;;2.80;;
68315;SDS011;55508;54.368;18.406;2023-06-01T11:34:59;8.40;;;3.03;;
68315;SDS011;55508;54.368;18.406;2023-06-01T11:37:26;7.95;;;2.78;;
68315;SDS011;55508;54.368;18.406;2023-06-01T11:40:04;10.38;;;2.80;;
68315;SDS011;55508;54.368;18.406;2023-06-01T11:42:34;6.93;;;2.80;;
68315;SDS011;55508;54.368;18.406;2023-06-01T11:45:03;7.47;;;2.47;;
68315;SDS011;55508;54.368;18.406;2023-06-01T11:47:31;7.85;;;2.20;;
68315;SDS011;55508;54.368;18.406;2023-06-01T11:49:58;6.20;;;2.53;;
68315;SDS011;55508;54.368;18.406;2023-06-01T11:52:26;10.13;;;2.60;;
68315;SDS011;55508;54.368;18.406;2023-06-01T11:54:53;4.72;;;2.42;;
68315;SDS011;55508;54.368;18.406;2023-06-01T11:57:20;12.32;;;3.28;;
68315;SDS011;55508;54.368;18.406;2023-06-01T11:59:47;4.78;;;2.85;;
68315;SDS011;55508;54.368;18.406;2023-06-01T12:02:21;5.22;;;2.50;;
68315;SDS011;55508;54.368;18.406;2023-06-01T12:04:58;7.78;;;3.05;;
68315;SDS011;55508;54.368;18.406;2023-06-01T12:07:45;12.35;;;3.08;;
68315;SDS011;55508;54.368;18.406;2023-06-01T12:10:13;5.90;;;3.03;;
68315;SDS011;55508;54.368;18.406;2023-06-01T12:12:43;8.35;;;2.67;;
68315;SDS011;55508;54.368;18.406;2023-06-01T12:15:11;3.83;;;2.63;;
68315;SDS011;55508;54.368;18.406;2023-06-01T12:17:56;6.45;;;2.83;;
68315;SDS011;55508;54.368;18.406;2023-06-01T12:20:29;11.80;;;3.20;;
68315;SDS011;55508;54.368;18.406;2023-06-01T12:23:12;6.88;;;3.00;;
68315;SDS011;55508;54.368;18.406;2023-06-01T12:28:28;8.18;;;3.05;;
68315;SDS011;55508;54.368;18.406;2023-06-01T12:33:45;7.38;;;2.80;;
68315;SDS011;55508;54.368;18.406;2023-06-01T12:39:02;3.70;;;2.72;;
68315;SDS011;55508;54.368;18.406;2023-06-01T12:41:31;5.93;;;2.90;;
68315;SDS011;55508;54.368;18.406;2023-06-01T12:43:58;6.68;;;2.90;;
68315;SDS011;55508;54.368;18.406;2023-06-01T12:46:29;8.43;;;3.22;;
68315;SDS011;55508;54.368;18.406;2023-06-01T12:51:46;9.38;;;2.60;;
68315;SDS011;55508;54.368;18.406;2023-06-01T12:54:13;5.88;;;2.85;;
68315;SDS011;55508;54.368;18.406;2023-06-01T12:56:40;5.57;;;2.65;;
68315;SDS011;55508;54.368;18.406;2023-06-01T12:59:07;5.32;;;2.83;;
68315;SDS011;55508;54.368;18.406;2023-06-01T13:01:35;6.50;;;2.60;;
68315;SDS011;55508;54.368;18.406;2023-06-01T13:04:02;5.85;;;2.80;;
68315;SDS011;55508;54.368;18.406;2023-06-01T13:06:30;6.32;;;2.90;;
68315;SDS011;55508;54.368;18.406;2023-06-01T13:08:57;6.22;;;2.70;;
68315;SDS011;55508;54.368;18.406;2023-06-01T13:11:24;8.82;;;3.38;;
68315;SDS011;55508;54.368;18.406;2023-06-01T13:13:51;7.03;;;2.95;;
68315;SDS011;55508;54.368;18.406;2023-06-01T13:16:19;4.40;;;2.50;;
68315;SDS011;55508;54.368;18.406;2023-06-01T13:18:47;7.85;;;3.08;;
68315;SDS011;55508;54.368;18.406;2023-06-01T13:21:17;9.35;;;2.70;;
68315;SDS011;55508;54.368;18.406;2023-06-01T13:23:45;12.93;;;3.25;;
68315;SDS011;55508;54.368;18.406;2023-06-01T13:26:12;12.50;;;3.40;;
68315;SDS011;55508;54.368;18.406;2023-06-01T13:28:41;8.65;;;3.53;;
68315;SDS011;55508;54.368;18.406;2023-06-01T13:31:08;8.25;;;2.72;;
68315;SDS011;55508;54.368;18.406;2023-06-01T13:33:36;9.40;;;3.10;;
68315;SDS011;55508;54.368;18.406;2023-06-01T13:36:03;7.72;;;3.13;;
68315;SDS011;55508;54.368;18.406;2023-06-01T13:38:32;11.88;;;3.70;;
68315;SDS011;55508;54.368;18.406;2023-06-01T13:40:59;16.98;;;3.30;;
68315;SDS011;55508;54.368;18.406;2023-06-01T13:43:26;4.55;;;2.83;;
68315;SDS011;55508;54.368;18.406;2023-06-01T13:45:54;10.63;;;3.25;;
68315;SDS011;55508;54.368;18.406;2023-06-01T13:48:21;8.88;;;3.03;;
68315;SDS011;55508;54.368;18.406;2023-06-01T13:50:48;12.02;;;3.30;;
68315;SDS011;55508;54.368;18.406;2023-06-01T13:53:15;9.90;;;2.78;;
68315;SDS011;55508;54.368;18.406;2023-06-01T13:55:42;12.38;;;2.95;;
68315;SDS011;55508;54.368;18.406;2023-06-01T13:58:09;9.82;;;3.28;;
68315;SDS011;55508;54.368;18.406;2023-06-01T14:00:36;8.00;;;2.70;;
68315;SDS011;55508;54.368;18.406;2023-06-01T14:03:04;4.20;;;2.45;;
68315;SDS011;55508;54.368;18.406;2023-06-01T14:05:31;6.88;;;2.50;;
68315;SDS011;55508;54.368;18.406;2023-06-01T14:08:17;10.63;;;2.85;;
68315;SDS011;55508;54.368;18.406;2023-06-01T14:10:44;11.55;;;3.10;;
68315;SDS011;55508;54.368;18.406;2023-06-01T14:13:11;12.23;;;3.17;;
68315;SDS011;55508;54.368;18.406;2023-06-01T14:15:38;8.98;;;4.55;;
68315;SDS011;55508;54.368;18.406;2023-06-01T14:18:05;6.55;;;2.50;;
68315;SDS011;55508;54.368;18.406;2023-06-01T14:20:32;5.72;;;3.08;;
68315;SDS011;55508;54.368;18.406;2023-06-01T14:23:01;6.63;;;2.83;;
68315;SDS011;55508;54.368;18.406;2023-06-01T14:25:29;7.30;;;2.63;;
68315;SDS011;55508;54.368;18.406;2023-06-01T14:27:56;9.45;;;2.60;;
68315;SDS011;55508;54.368;18.406;2023-06-01T14:30:23;11.95;;;3.05;;
68315;SDS011;55508;54.368;18.406;2023-06-01T14:32:52;31.45;;;3.40;;
68315;SDS011;55508;54.368;18.406;2023-06-01T14:35:20;8.60;;;3.08;;
68315;SDS011;55508;54.368;18.406;2023-06-01T14:37:47;12.43;;;3.45;;
68315;SDS011;55508;54.368;18.406;2023-06-01T14:40:16;17.60;;;3.83;;
68315;SDS011;55508;54.368;18.406;2023-06-01T14:42:43;7.53;;;3.15;;
68315;SDS011;55508;54.368;18.406;2023-06-01T14:45:10;32.88;;;4.03;;
68315;SDS011;55508;54.368;18.406;2023-06-01T14:47:40;12.80;;;3.50;;
68315;SDS011;55508;54.368;18.406;2023-06-01T14:50:08;6.80;;;2.35;;
68315;SDS011;55508;54.368;18.406;2023-06-01T14:52:36;6.10;;;2.50;;
68315;SDS011;55508;54.368;18.406;2023-06-01T14:55:03;7.55;;;3.00;;
68315;SDS011;55508;54.368;18.406;2023-06-01T14:57:30;6.05;;;2.70;;
68315;SDS011;55508;54.368;18.406;2023-06-01T14:59:57;11.68;;;4.72;;
68315;SDS011;55508;54.368;18.406;2023-06-01T15:02:30;11.77;;;2.92;;
68315;SDS011;55508;54.368;18.406;2023-06-01T15:04:58;4.57;;;3.00;;
68315;SDS011;55508;54.368;18.406;2023-06-01T15:07:25;11.68;;;3.25;;
68315;SDS011;55508;54.368;18.406;2023-06-01T15:09:51;6.30;;;3.20;;
68315;SDS011;55508;54.368;18.406;2023-06-01T15:12:20;8.35;;;3.05;;
68315;SDS011;55508;54.368;18.406;2023-06-01T15:14:47;10.05;;;2.85;;
68315;SDS011;55508;54.368;18.406;2023-06-01T15:17:17;6.30;;;2.88;;
68315;SDS011;55508;54.368;18.406;2023-06-01T15:19:44;7.65;;;3.83;;
68315;SDS011;55508;54.368;18.406;2023-06-01T15:22:12;7.63;;;3.33;;
68315;SDS011;55508;54.368;18.406;2023-06-01T15:24:40;6.10;;;3.10;;